Time,TemperatureF,DewpointF,PressureIn,WindDirection,WindDirectionDegrees,WindSpeedMPH,WindSpeedGustMPH,Humidity,HourlyPrecipIn,Conditions,Clouds,dailyrainin,SoftwareType,DateUTC
2013-05-13 00:04:00,61.5,42.2,29.97,WSW,248,0.0,0.0,49,0.00,,---,0.00,VWS V14.01,2013-05-13 07:04:00,
2013-05-13 00:10:00,61.3,42.0,29.97,WSW,248,0.0,0.0,49,0.00,,---,0.00,VWS V14.01,2013-05-13 07:10:00,
2013-05-13 00:15:00,61.2,42.4,29.97,WSW,248,0.0,0.0,50,0.00,,---,0.00,VWS V14.01,2013-05-13 07:15:00,
2013-05-13 00:20:00,60.8,42.1,29.94,WSW,248,0.0,0.0,50,0.00,,---,0.00,VWS V14.01,2013-05-13 07:20:00,
2013-05-13 00:25:00,60.6,42.4,29.94,WSW,248,0.0,0.0,51,0.00,,---,0.00,VWS V14.01,2013-05-13 07:25:00,
2013-05-13 00:30:00,60.6,41.9,29.94,WSW,248,0.0,0.0,50,0.00,,---,0.00,VWS V14.01,2013-05-13 07:30:00,
2013-05-13 00:35:00,60.6,42.4,29.94,WSW,248,0.0,0.0,51,0.00,,---,0.00,VWS V14.01,2013-05-13 07:35:00,
2013-05-13 00:40:00,60.6,42.4,29.94,WSW,248,0.0,0.0,51,0.00,,---,0.00,VWS V14.01,2013-05-13 07:40:00,
2013-05-13 00:45:00,60.8,42.6,29.94,WSW,248,0.0,0.0,51,0.00,,---,0.00,VWS V14.01,2013-05-13 07:45:00,
2013-05-13 00:50:00,61.2,42.9,29.94,SW,225,0.0,0.0,51,0.00,,---,0.00,VWS V14.01,2013-05-13 07:50:00,
2013-05-13 00:55:00,61.3,43.6,29.94,SE,135,0.0,0.0,52,0.00,,---,0.00,VWS V14.01,2013-05-13 07:55:00,
2013-05-13 01:00:00,61.3,43.1,29.94,West,270,0.0,0.0,51,0.00,,---,0.00,VWS V14.01,2013-05-13 08:00:00,
2013-05-13 01:05:00,61.9,44.1,29.97,West,270,0.0,0.0,52,0.00,,---,0.00,VWS V14.01,2013-05-13 08:05:00,
2013-05-13 01:10:00,62.2,43.9,29.97,SW,225,1.1,1.1,51,0.00,,---,0.00,VWS V14.01,2013-05-13 08:10:00,
2013-05-13 01:15:00,62.8,43.9,29.97,WSW,248,3.6,3.6,50,0.00,,---,0.00,VWS V14.01,2013-05-13 08:15:00,
2013-05-13 01:20:00,63.0,44.0,29.97,SW,225,0.0,0.0,50,0.00,,---,0.00,VWS V14.01,2013-05-13 08:20:00,
2013-05-13 01:26:00,63.1,43.7,29.97,SW,225,2.5,2.5,49,0.00,,---,0.00,VWS V14.01,2013-05-13 08:26:00,
2013-05-13 01:31:00,63.3,43.8,29.97,SW,225,1.6,1.6,49,0.00,,---,0.00,VWS V14.01,2013-05-13 08:31:00,
2013-05-13 01:36:00,63.5,43.5,29.97,WSW,248,1.6,1.6,48,0.00,,---,0.00,VWS V14.01,2013-05-13 08:36:00,
2013-05-13 01:41:00,63.9,43.3,29.97,SSW,202,0.9,0.9,47,0.00,,---,0.00,VWS V14.01,2013-05-13 08:41:00,
2013-05-13 01:46:00,63.9,43.3,29.97,SSW,202,4.0,4.0,47,0.00,,---,0.00,VWS V14.01,2013-05-13 08:46:00,
2013-05-13 01:51:00,63.9,43.3,29.97,SSW,202,3.1,3.1,47,0.00,,---,0.00,VWS V14.01,2013-05-13 08:51:00,
2013-05-13 01:56:00,64.0,42.9,29.97,WSW,248,3.4,3.4,46,0.00,,---,0.00,VWS V14.01,2013-05-13 08:56:00,
2013-05-13 02:01:00,63.9,42.7,29.97,WSW,248,4.5,4.5,46,0.00,,---,0.00,VWS V14.01,2013-05-13 09:01:00,
2013-05-13 02:06:00,63.9,42.7,29.97,SSW,202,0.9,0.9,46,0.00,,---,0.00,VWS V14.01,2013-05-13 09:06:00,
2013-05-13 02:11:00,63.9,42.7,29.97,SSW,202,3.6,3.6,46,0.00,,---,0.00,VWS V14.01,2013-05-13 09:11:00,
2013-05-13 02:16:00,63.9,42.7,29.97,SSE,158,3.1,3.1,46,0.00,,---,0.00,VWS V14.01,2013-05-13 09:16:00,
2013-05-13 02:21:00,63.9,42.7,29.97,SW,225,3.4,3.4,46,0.00,,---,0.00,VWS V14.01,2013-05-13 09:21:00,
2013-05-13 02:26:00,63.7,42.5,29.97,WSW,248,6.9,6.9,46,0.00,,---,0.00,VWS V14.01,2013-05-13 09:26:00,
2013-05-13 02:31:00,63.5,42.4,29.97,West,270,2.7,2.7,46,0.00,,---,0.00,VWS V14.01,2013-05-13 09:31:00,
2013-05-13 02:36:00,63.5,42.4,29.97,WNW,292,7.2,7.2,46,0.00,,---,0.00,VWS V14.01,2013-05-13 09:36:00,
2013-05-13 02:42:00,63.1,42.0,29.97,SW,225,4.7,4.7,46,0.00,,---,0.00,VWS V14.01,2013-05-13 09:42:00,
2013-05-13 02:47:00,63.1,42.0,29.97,WSW,248,0.0,0.0,46,0.00,,---,0.00,VWS V14.01,2013-05-13 09:47:00,
2013-05-13 02:52:00,62.8,42.3,29.97,SW,225,2.5,2.5,47,0.00,,---,0.00,VWS V14.01,2013-05-13 09:52:00,
2013-05-13 02:57:00,62.6,42.1,29.97,SW,225,6.5,6.5,47,0.00,,---,0.00,VWS V14.01,2013-05-13 09:57:00,
2013-05-13 03:02:00,62.8,42.3,29.97,WSW,248,3.6,3.6,47,0.00,,---,0.00,VWS V14.01,2013-05-13 10:02:00,
2013-05-13 03:07:00,62.6,41.5,29.97,WSW,248,0.0,0.0,46,0.00,,---,0.00,VWS V14.01,2013-05-13 10:07:00,
2013-05-13 03:12:00,62.4,41.9,29.97,South,180,0.0,0.0,47,0.00,,---,3.71,VWS V14.01,2013-05-13 10:12:00,
2013-05-13 03:17:00,62.2,41.8,29.97,SW,225,3.1,3.1,47,0.00,,---,3.71,VWS V14.01,2013-05-13 10:17:00,
2013-05-13 03:22:00,61.9,41.5,29.97,WSW,248,2.2,2.2,47,0.00,,---,3.71,VWS V14.01,2013-05-13 10:22:00,
2013-05-13 03:27:00,61.9,41.5,29.97,SSW,202,2.7,2.7,47,0.00,,---,3.71,VWS V14.01,2013-05-13 10:27:00,
2013-05-13 04:10:00,61.2,40.8,29.94,South,180,0.9,0.9,47,0.00,,---,3.71,VWS V14.01,2013-05-13 11:10:00,
2013-05-13 04:15:00,61.0,40.6,29.94,SW,225,2.2,2.2,47,0.00,,---,3.71,VWS V14.01,2013-05-13 11:15:00,
2013-05-13 04:20:00,61.0,41.2,29.91,SW,225,1.6,1.6,48,0.00,,---,3.71,VWS V14.01,2013-05-13 11:20:00,
2013-05-13 04:25:00,61.0,41.2,29.91,SW,225,8.7,8.7,48,0.00,,---,3.71,VWS V14.01,2013-05-13 11:25:00,
2013-05-13 04:30:00,61.0,41.2,29.91,SSW,202,2.2,2.2,48,0.00,,---,3.71,VWS V14.01,2013-05-13 11:30:00,
2013-05-13 04:35:00,60.6,41.9,29.94,SW,225,4.0,4.0,50,0.00,,---,3.71,VWS V14.01,2013-05-13 11:35:00,
2013-05-13 04:40:00,60.6,41.9,29.94,SW,225,4.3,4.3,50,0.00,,---,3.71,VWS V14.01,2013-05-13 11:40:00,
2013-05-13 04:46:00,60.4,41.7,29.94,SW,225,6.3,6.3,50,0.00,,---,3.71,VWS V14.01,2013-05-13 11:46:00,
2013-05-13 04:51:00,60.4,42.2,29.94,South,180,10.5,10.5,51,0.00,,---,3.71,VWS V14.01,2013-05-13 11:51:00,
2013-05-13 04:56:00,60.6,42.4,29.94,SSW,202,2.7,2.7,51,0.00,,---,3.71,VWS V14.01,2013-05-13 11:56:00,
2013-05-13 05:01:00,60.6,42.4,29.94,WSW,248,2.5,2.5,51,0.00,,---,3.71,VWS V14.01,2013-05-13 12:01:00,
2013-05-13 05:06:00,60.6,42.4,29.94,SSE,158,3.8,3.8,51,0.00,,---,3.71,VWS V14.01,2013-05-13 12:06:00,
2013-05-13 05:11:00,60.4,42.2,29.94,WSW,248,2.9,2.9,51,0.00,,---,3.71,VWS V14.01,2013-05-13 12:11:00,
2013-05-13 05:16:00,60.4,42.2,29.94,South,180,7.6,7.6,51,0.00,,---,3.71,VWS V14.01,2013-05-13 12:16:00,
2013-05-13 05:21:00,60.4,42.2,29.94,SW,225,2.7,2.7,51,0.00,,---,3.71,VWS V14.01,2013-05-13 12:21:00,
2013-05-13 05:26:00,60.4,42.2,29.94,SW,225,1.6,1.6,51,0.00,,---,3.71,VWS V14.01,2013-05-13 12:26:00,
2013-05-13 05:31:00,60.4,42.2,29.94,WSW,248,4.3,4.3,51,0.00,,---,3.71,VWS V14.01,2013-05-13 12:31:00,
2013-05-13 05:36:00,60.4,42.2,29.94,West,270,3.4,3.4,51,0.00,,---,3.71,VWS V14.01,2013-05-13 12:36:00,
2013-05-13 05:41:00,60.3,42.6,29.94,SSW,202,3.8,3.8,52,0.00,,---,3.71,VWS V14.01,2013-05-13 12:41:00,
2013-05-13 05:46:00,60.3,42.6,29.94,SSW,202,1.3,1.3,52,0.00,,---,3.71,VWS V14.01,2013-05-13 12:46:00,
2013-05-13 05:51:00,60.3,42.6,29.94,East,90,6.0,6.0,52,0.00,,---,3.71,VWS V14.01,2013-05-13 12:51:00,
2013-05-13 05:56:00,60.3,42.1,29.94,SW,225,0.0,0.0,51,0.00,,---,3.71,VWS V14.01,2013-05-13 12:56:00,
2013-05-13 06:01:00,60.3,42.1,29.94,ESE,112,3.1,3.1,51,0.00,,---,3.71,VWS V14.01,2013-05-13 13:01:00,
2013-05-13 06:07:00,60.4,42.2,29.94,WSW,248,3.1,3.1,51,0.00,,---,3.71,VWS V14.01,2013-05-13 13:07:00,
2013-05-13 06:12:00,60.4,42.2,29.94,SW,225,4.9,4.9,51,0.00,,---,3.71,VWS V14.01,2013-05-13 13:12:00,
2013-05-13 06:17:00,60.4,42.2,29.94,WSW,248,4.7,4.7,51,0.00,,---,3.71,VWS V14.01,2013-05-13 13:17:00,
2013-05-13 06:22:00,60.4,42.2,29.94,SW,225,2.0,2.0,51,0.00,,---,3.71,VWS V14.01,2013-05-13 13:22:00,
2013-05-13 06:27:00,60.4,42.2,29.94,SSW,202,3.8,3.8,51,0.00,,---,3.71,VWS V14.01,2013-05-13 13:27:00,
2013-05-13 06:32:00,60.6,42.4,29.94,WSW,248,2.0,2.0,51,0.00,,---,3.71,VWS V14.01,2013-05-13 13:32:00,
2013-05-13 06:37:00,60.6,42.4,29.94,West,270,2.5,2.5,51,0.00,,---,3.71,VWS V14.01,2013-05-13 13:37:00,
2013-05-13 06:42:00,60.8,42.1,29.94,WSW,248,1.6,1.6,50,0.00,,---,3.71,VWS V14.01,2013-05-13 13:42:00,
2013-05-13 06:47:00,60.8,42.1,29.94,WSW,248,1.1,1.1,50,0.00,,---,3.71,VWS V14.01,2013-05-13 13:47:00,
2013-05-13 06:52:00,60.6,41.9,29.94,SW,225,2.7,2.7,50,0.00,,---,3.71,VWS V14.01,2013-05-13 13:52:00,
2013-05-13 06:57:00,60.6,42.4,29.94,SSW,202,2.7,2.7,51,0.00,,---,3.71,VWS V14.01,2013-05-13 13:57:00,
2013-05-13 07:02:00,60.6,42.4,29.94,SW,225,2.5,2.5,51,0.00,,---,3.71,VWS V14.01,2013-05-13 14:02:00,
2013-05-13 07:07:00,60.8,42.1,29.97,WSW,248,3.4,3.4,50,0.00,,---,3.71,VWS V14.01,2013-05-13 14:07:00,
2013-05-13 07:12:00,61.0,42.2,29.97,WSW,248,0.0,0.0,50,0.00,,---,3.71,VWS V14.01,2013-05-13 14:12:00,
2013-05-13 07:17:00,61.0,42.2,29.94,North,0,0.0,0.0,50,0.00,,---,3.71,VWS V14.01,2013-05-13 14:17:00,
2013-05-13 07:23:00,61.0,42.2,29.94,NW,315,0.9,0.9,50,0.00,,---,3.71,VWS V14.01,2013-05-13 14:23:00,
2013-05-13 07:28:00,61.0,41.7,29.94,SSW,202,2.7,2.7,49,0.00,,---,3.71,VWS V14.01,2013-05-13 14:28:00,
2013-05-13 07:33:00,61.3,42.0,29.94,SW,225,3.6,3.6,49,0.00,,---,3.71,VWS V14.01,2013-05-13 14:33:00,
2013-05-13 07:38:00,61.5,42.2,29.94,WSW,248,6.3,6.3,49,0.00,,---,3.71,VWS V14.01,2013-05-13 14:38:00,
2013-05-13 07:43:00,61.5,42.2,29.94,SE,135,3.6,3.6,49,0.00,,---,3.71,VWS V14.01,2013-05-13 14:43:00,
2013-05-13 07:48:00,61.5,42.2,29.94,SSW,202,4.3,4.3,49,0.00,,---,3.71,VWS V14.01,2013-05-13 14:48:00,
2013-05-13 07:53:00,61.5,42.2,29.94,SW,225,2.2,2.2,49,0.00,,---,3.71,VWS V14.01,2013-05-13 14:53:00,
2013-05-13 07:58:00,61.9,42.5,29.94,SW,225,0.0,0.0,49,0.00,,---,3.71,VWS V14.01,2013-05-13 14:58:00,
2013-05-13 08:03:00,62.1,42.7,29.94,SSW,202,0.0,0.0,49,0.00,,---,3.71,VWS V14.01,2013-05-13 15:03:00,
2013-05-13 08:08:00,62.2,42.9,29.94,SSE,158,3.1,3.1,49,0.00,,---,3.71,VWS V14.01,2013-05-13 15:08:00,
2013-05-13 08:13:00,62.4,43.0,29.94,WNW,292,0.0,0.0,49,0.00,,---,3.71,VWS V14.01,2013-05-13 15:13:00,
2013-05-13 08:18:00,62.4,43.0,29.97,SSW,202,2.7,2.7,49,0.00,,---,3.71,VWS V14.01,2013-05-13 15:18:00,
2013-05-13 08:23:00,62.8,42.8,29.97,North,0,0.0,0.0,48,0.00,,---,3.71,VWS V14.01,2013-05-13 15:23:00,
2013-05-13 08:28:00,63.1,43.2,29.97,South,180,2.0,2.0,48,0.00,,---,3.71,VWS V14.01,2013-05-13 15:28:00,
2013-05-13 08:34:00,63.5,43.5,29.94,NE,45,3.6,3.6,48,0.00,,---,3.71,VWS V14.01,2013-05-13 15:34:00,
2013-05-13 08:39:00,63.9,43.8,29.94,SE,135,2.5,2.5,48,0.00,,---,3.71,VWS V14.01,2013-05-13 15:39:00,
2013-05-13 08:44:00,63.7,42.5,29.94,SW,225,4.0,4.0,46,0.00,,---,3.71,VWS V14.01,2013-05-13 15:44:00,
2013-05-13 08:49:00,63.7,43.1,29.91,WSW,248,1.3,1.3,47,0.00,,---,3.71,VWS V14.01,2013-05-13 15:49:00,
2013-05-13 08:54:00,63.7,43.1,29.91,SE,135,2.0,2.0,47,0.00,,---,3.71,VWS V14.01,2013-05-13 15:54:00,
2013-05-13 08:59:00,63.7,43.1,29.91,SSW,202,0.0,0.0,47,0.00,,---,3.71,VWS V14.01,2013-05-13 15:59:00,
2013-05-13 09:04:00,63.5,42.9,29.94,SW,225,0.0,0.0,47,0.00,,---,3.71,VWS V14.01,2013-05-13 16:04:00,
2013-05-13 09:09:00,63.5,42.9,29.94,WNW,292,3.1,3.1,47,0.00,,---,3.71,VWS V14.01,2013-05-13 16:09:00,
2013-05-13 09:14:00,63.9,43.3,29.94,South,180,3.1,3.1,47,0.00,,---,3.71,VWS V14.01,2013-05-13 16:14:00,
2013-05-13 09:19:00,63.9,43.3,29.94,SW,225,2.5,2.5,47,0.00,,---,3.71,VWS V14.01,2013-05-13 16:19:00,
2013-05-13 09:24:00,63.9,43.3,29.94,South,180,8.5,8.5,47,0.00,,---,3.71,VWS V14.01,2013-05-13 16:24:00,
2013-05-13 09:29:00,63.9,43.3,29.94,SSW,202,3.1,3.1,47,0.00,,---,3.71,VWS V14.01,2013-05-13 16:29:00,
2013-05-13 09:34:00,63.9,43.3,29.94,WSW,248,1.6,1.6,47,0.00,,---,3.71,VWS V14.01,2013-05-13 16:34:00,
2013-05-13 09:39:00,63.9,43.3,29.94,SSW,202,2.5,2.5,47,0.00,,---,3.71,VWS V14.01,2013-05-13 16:39:00,
2013-05-13 09:45:00,63.9,45.4,29.94,SW,225,0.0,0.0,51,0.00,,---,3.71,VWS V14.01,2013-05-13 16:45:00,
2013-05-13 09:50:00,63.9,45.4,29.94,NW,315,1.3,1.3,51,0.00,,---,3.71,VWS V14.01,2013-05-13 16:50:00,
2013-05-13 09:55:00,63.9,45.4,29.94,WSW,248,3.4,3.4,51,0.00,,---,3.71,VWS V14.01,2013-05-13 16:55:00,
2013-05-13 10:00:00,65.8,46.7,29.94,SW,225,1.6,1.6,50,0.00,,---,3.71,VWS V14.01,2013-05-13 17:00:00,
2013-05-13 10:05:00,68.4,46.2,29.94,SW,225,3.4,3.4,45,0.00,,---,3.71,VWS V14.01,2013-05-13 17:05:00,
2013-05-13 10:10:00,69.8,46.3,29.94,SW,225,2.0,2.0,43,0.00,,---,3.71,VWS V14.01,2013-05-13 17:10:00,
2013-05-13 10:15:00,68.4,43.1,29.94,SW,225,4.0,4.0,40,0.00,,---,3.71,VWS V14.01,2013-05-13 17:15:00,
2013-05-13 10:20:00,68.2,44.2,29.94,SSW,202,0.0,0.0,42,0.00,,---,3.71,VWS V14.01,2013-05-13 17:20:00,
2013-05-13 10:25:00,67.1,42.6,29.94,WSW,248,3.6,3.6,41,0.00,,---,3.71,VWS V14.01,2013-05-13 17:25:00,
2013-05-13 10:30:00,66.6,42.8,29.94,WSW,248,1.3,1.3,42,0.00,,---,3.71,VWS V14.01,2013-05-13 17:30:00,
2013-05-13 10:35:00,66.6,43.4,29.94,WSW,248,2.7,2.7,43,0.00,,---,3.71,VWS V14.01,2013-05-13 17:35:00,
2013-05-13 10:40:00,66.4,43.2,29.94,WSW,248,0.0,0.0,43,0.00,,---,3.71,VWS V14.01,2013-05-13 17:40:00,
2013-05-13 10:45:00,66.2,43.1,29.94,WNW,292,2.7,2.7,43,0.00,,---,3.71,VWS V14.01,2013-05-13 17:45:00,
2013-05-13 10:50:00,66.2,43.1,29.97,West,270,0.0,0.0,43,0.00,,---,3.71,VWS V14.01,2013-05-13 17:50:00,
2013-05-13 10:56:00,66.2,43.7,29.97,WSW,248,0.0,0.0,44,0.00,,---,3.71,VWS V14.01,2013-05-13 17:56:00,
2013-05-13 11:01:00,66.7,44.2,29.97,West,270,0.0,0.0,44,0.00,,---,3.71,VWS V14.01,2013-05-13 18:01:00,
2013-05-13 11:06:00,68.0,44.7,29.94,WNW,292,0.0,0.0,43,0.00,,---,3.71,VWS V14.01,2013-05-13 18:06:00,
2013-05-13 11:11:00,69.6,45.5,29.94,West,270,1.1,1.1,42,0.00,,---,3.71,VWS V14.01,2013-05-13 18:11:00,
2013-05-13 11:16:00,73.2,46.8,29.94,WNW,292,0.0,0.0,39,0.00,,---,3.71,VWS V14.01,2013-05-13 18:16:00,
2013-05-13 11:21:00,72.1,45.2,29.91,NW,315,0.0,0.0,38,0.00,,---,3.71,VWS V14.01,2013-05-13 18:21:00,
2013-05-13 11:26:00,72.3,43.9,29.91,WSW,248,0.0,0.0,36,0.00,,---,3.71,VWS V14.01,2013-05-13 18:26:00,
2013-05-13 11:31:00,73.4,43.3,29.91,West,270,5.4,5.4,34,0.00,,---,3.71,VWS V14.01,2013-05-13 18:31:00,
2013-05-13 11:36:00,72.5,41.8,29.94,WNW,292,2.9,2.9,33,0.00,,---,3.71,VWS V14.01,2013-05-13 18:36:00,
2013-05-13 11:41:00,72.0,42.1,29.94,WNW,292,0.0,0.0,34,0.00,,---,3.71,VWS V14.01,2013-05-13 18:41:00,
2013-05-13 11:46:00,70.9,41.1,29.94,West,270,0.0,0.0,34,0.00,,---,3.71,VWS V14.01,2013-05-13 18:46:00,
2013-05-13 11:51:00,69.4,40.6,29.94,West,270,0.9,0.9,35,0.00,,---,3.71,VWS V14.01,2013-05-13 18:51:00,
2013-05-13 11:56:00,68.2,40.2,29.94,West,270,3.8,3.8,36,0.00,,---,3.71,VWS V14.01,2013-05-13 18:56:00,
2013-05-13 12:01:00,66.9,41.8,29.94,NW,315,2.7,2.7,40,0.00,,---,3.71,VWS V14.01,2013-05-13 19:01:00,
2013-05-13 12:06:00,65.1,43.3,29.94,West,270,1.3,1.3,45,0.04,,---,3.75,VWS V14.01,2013-05-13 19:06:00,
2013-05-13 12:12:00,64.0,42.9,29.94,West,270,0.0,0.0,46,0.04,,---,3.75,VWS V14.01,2013-05-13 19:12:00,
2013-05-13 12:17:00,63.1,43.7,29.94,SW,225,0.0,0.0,49,0.04,,---,3.75,VWS V14.01,2013-05-13 19:17:00,
2013-05-13 12:22:00,62.8,44.4,29.94,West,270,0.0,0.0,51,0.04,,---,3.75,VWS V14.01,2013-05-13 19:22:00,
2013-05-13 12:27:00,62.4,46.1,29.94,SW,225,1.3,1.3,55,0.04,,---,3.75,VWS V14.01,2013-05-13 19:27:00,
2013-05-13 12:32:00,61.2,45.4,29.94,West,270,0.0,0.0,56,0.04,,---,3.75,VWS V14.01,2013-05-13 19:32:00,
2013-05-13 12:37:00,60.4,45.2,29.94,West,270,0.0,0.0,57,0.04,,---,3.75,VWS V14.01,2013-05-13 19:37:00,
2013-05-13 12:42:00,59.9,46.4,29.94,West,270,2.9,2.9,61,0.08,,---,3.79,VWS V14.01,2013-05-13 19:42:00,
2013-05-13 12:47:00,59.4,47.2,29.94,West,270,0.0,0.0,64,0.08,,---,3.79,VWS V14.01,2013-05-13 19:47:00,
2013-05-13 12:52:00,59.0,46.8,29.94,WNW,292,1.1,1.1,64,0.08,,---,3.79,VWS V14.01,2013-05-13 19:52:00,
2013-05-13 12:57:00,58.6,47.7,29.94,WNW,292,0.0,0.0,67,0.08,,---,3.79,VWS V14.01,2013-05-13 19:57:00,
2013-05-13 13:02:00,58.1,48.0,29.94,WSW,248,1.1,1.1,69,0.04,,---,3.79,VWS V14.01,2013-05-13 20:02:00,
2013-05-13 13:07:00,57.9,47.8,29.94,West,270,0.0,0.0,69,0.08,,---,3.83,VWS V14.01,2013-05-13 20:07:00,
2013-05-13 13:12:00,57.9,49.3,29.94,NW,315,0.0,0.0,73,0.08,,---,3.83,VWS V14.01,2013-05-13 20:12:00,
2013-05-13 13:17:00,57.6,49.3,29.94,West,270,2.9,2.9,74,0.12,,---,3.87,VWS V14.01,2013-05-13 20:17:00,
2013-05-13 13:22:00,57.4,49.2,29.94,WNW,292,0.0,0.0,74,0.12,,---,3.87,VWS V14.01,2013-05-13 20:22:00,
2013-05-13 13:28:00,56.8,48.7,29.94,WNW,292,2.0,2.0,74,0.12,,---,3.87,VWS V14.01,2013-05-13 20:28:00,
2013-05-13 13:33:00,56.3,47.8,29.94,WNW,292,2.5,2.5,73,0.12,,---,3.87,VWS V14.01,2013-05-13 20:33:00,
2013-05-13 13:38:00,55.9,47.8,29.94,West,270,3.1,3.1,74,0.12,,---,3.87,VWS V14.01,2013-05-13 20:38:00,
2013-05-13 13:43:00,55.8,48.0,29.94,WSW,248,0.9,0.9,75,0.08,,---,3.87,VWS V14.01,2013-05-13 20:43:00,
2013-05-13 13:48:00,55.8,48.7,29.94,West,270,0.0,0.0,77,0.13,,---,3.92,VWS V14.01,2013-05-13 20:48:00,
2013-05-13 13:53:00,55.8,49.0,29.94,West,270,0.0,0.0,78,0.13,,---,3.92,VWS V14.01,2013-05-13 20:53:00,
2013-05-13 13:58:00,55.8,49.0,29.94,WSW,248,2.9,2.9,78,0.13,,---,3.92,VWS V14.01,2013-05-13 20:58:00,
2013-05-13 14:03:00,55.4,49.0,29.97,SW,225,1.3,1.3,79,0.13,,---,3.92,VWS V14.01,2013-05-13 21:03:00,
2013-05-13 14:08:00,55.0,49.0,29.97,WSW,248,2.0,2.0,80,0.13,,---,3.92,VWS V14.01,2013-05-13 21:08:00,
2013-05-13 14:13:00,54.9,48.1,29.97,WSW,248,1.6,1.6,78,0.09,,---,3.92,VWS V14.01,2013-05-13 21:13:00,
2013-05-13 14:18:00,55.4,48.7,29.94,West,270,2.9,2.9,78,0.13,,---,3.96,VWS V14.01,2013-05-13 21:18:00,
2013-05-13 14:23:00,55.2,48.2,29.94,West,270,2.5,2.5,77,0.09,,---,3.96,VWS V14.01,2013-05-13 21:23:00,
2013-05-13 14:28:00,55.2,48.2,29.94,WSW,248,0.0,0.0,77,0.09,,---,3.96,VWS V14.01,2013-05-13 21:28:00,
2013-05-13 14:34:00,55.0,48.3,29.97,WSW,248,1.6,1.6,78,0.09,,---,3.96,VWS V14.01,2013-05-13 21:34:00,
2013-05-13 14:39:00,54.9,48.1,29.97,West,270,1.1,1.1,78,0.09,,---,3.96,VWS V14.01,2013-05-13 21:39:00,
2013-05-13 14:44:00,54.7,48.0,29.97,WSW,248,0.9,0.9,78,0.09,,---,3.96,VWS V14.01,2013-05-13 21:44:00,
2013-05-13 14:49:00,54.7,48.3,29.94,SW,225,0.9,0.9,79,0.08,,---,4.00,VWS V14.01,2013-05-13 21:49:00,
2013-05-13 14:54:00,54.7,48.3,29.94,SW,225,3.6,3.6,79,0.08,,---,4.00,VWS V14.01,2013-05-13 21:54:00,
2013-05-13 14:59:00,54.7,48.3,29.94,West,270,0.0,0.0,79,0.08,,---,4.00,VWS V14.01,2013-05-13 21:59:00,
2013-05-13 15:04:00,54.5,48.1,29.94,WSW,248,1.6,1.6,79,0.08,,---,4.00,VWS V14.01,2013-05-13 22:04:00,
2013-05-13 15:09:00,54.5,48.1,29.94,West,270,0.0,0.0,79,0.08,,---,4.00,VWS V14.01,2013-05-13 22:09:00,
2013-05-13 15:14:00,54.3,48.0,29.94,WSW,248,0.0,0.0,79,0.12,,---,4.04,VWS V14.01,2013-05-13 22:14:00,
2013-05-13 15:19:00,54.3,48.0,29.94,WSW,248,0.0,0.0,79,0.08,,---,4.04,VWS V14.01,2013-05-13 22:19:00,
2013-05-13 15:24:00,54.1,48.1,29.94,WSW,248,1.1,1.1,80,0.08,,---,4.04,VWS V14.01,2013-05-13 22:24:00,
2013-05-13 15:29:00,54.0,47.9,29.94,West,270,1.6,1.6,80,0.12,,---,4.08,VWS V14.01,2013-05-13 22:29:00,
2013-05-13 15:34:00,53.6,47.6,29.94,SW,225,1.6,1.6,80,0.12,,---,4.08,VWS V14.01,2013-05-13 22:34:00,
2013-05-13 15:39:00,53.4,47.7,29.94,SSW,202,0.0,0.0,81,0.12,,---,4.08,VWS V14.01,2013-05-13 22:39:00,
2013-05-13 15:44:00,53.1,47.7,29.94,WSW,248,0.0,0.0,82,0.12,,---,4.08,VWS V14.01,2013-05-13 22:44:00,
2013-05-13 15:50:00,53.1,48.0,29.94,South,180,0.0,0.0,83,0.08,,---,4.08,VWS V14.01,2013-05-13 22:50:00,
2013-05-13 15:55:00,52.9,47.9,29.94,SW,225,0.0,0.0,83,0.08,,---,4.08,VWS V14.01,2013-05-13 22:55:00,
2013-05-13 16:00:00,52.9,47.9,29.94,SSW,202,0.0,0.0,83,0.08,,---,4.08,VWS V14.01,2013-05-13 23:00:00,
2013-05-13 16:05:00,52.7,47.7,29.94,SSW,202,0.0,0.0,83,0.12,,---,4.12,VWS V14.01,2013-05-13 23:05:00,
2013-05-13 16:10:00,52.7,48.0,29.94,SSW,202,3.1,3.1,84,0.12,,---,4.12,VWS V14.01,2013-05-13 23:10:00,
2013-05-13 16:15:00,52.7,48.6,29.94,SSE,158,4.0,4.0,86,0.08,,---,4.12,VWS V14.01,2013-05-13 23:15:00,
2013-05-13 16:20:00,52.5,48.5,29.94,SE,135,1.6,1.6,86,0.08,,---,4.12,VWS V14.01,2013-05-13 23:20:00,
2013-05-13 16:25:00,52.5,48.2,29.94,SSW,202,2.0,2.0,85,0.08,,---,4.12,VWS V14.01,2013-05-13 23:25:00,
2013-05-13 16:30:00,52.5,47.8,29.94,NNW,338,0.0,0.0,84,0.04,,---,4.12,VWS V14.01,2013-05-13 23:30:00,
2013-05-13 16:35:00,52.7,48.0,29.94,SW,225,2.7,2.7,84,0.04,,---,4.12,VWS V14.01,2013-05-13 23:35:00,
2013-05-13 16:40:00,52.9,47.9,29.94,SSW,202,1.3,1.3,83,0.04,,---,4.12,VWS V14.01,2013-05-13 23:40:00,
2013-05-13 16:45:00,53.1,48.0,29.94,SSW,202,2.5,2.5,83,0.04,,---,4.12,VWS V14.01,2013-05-13 23:45:00,
2013-05-13 16:50:00,53.6,48.2,29.94,West,270,1.3,1.3,82,0.04,,---,4.12,VWS V14.01,2013-05-13 23:50:00,
2013-05-13 16:55:00,54.3,49.0,29.94,WSW,248,0.0,0.0,82,0.04,,---,4.12,VWS V14.01,2013-05-13 23:55:00,
2013-05-13 17:01:00,54.3,49.0,29.94,SSW,202,6.9,6.9,82,0.04,,---,4.12,VWS V14.01,2013-05-14 00:01:00,
2013-05-13 17:06:00,54.3,49.0,29.94,SSW,202,1.3,1.3,82,0.00,,---,4.12,VWS V14.01,2013-05-14 00:06:00,
2013-05-13 17:11:00,56.3,48.8,29.94,SW,225,4.9,4.9,76,0.00,,---,4.12,VWS V14.01,2013-05-14 00:11:00,
2013-05-13 17:16:00,56.3,48.8,29.94,SW,225,4.3,4.3,76,0.00,,---,4.12,VWS V14.01,2013-05-14 00:16:00,
2013-05-13 17:21:00,56.3,48.8,29.94,WSW,248,16.3,16.3,76,0.00,,---,4.12,VWS V14.01,2013-05-14 00:21:00,
2013-05-13 17:26:00,56.5,46.8,29.94,SSE,158,2.2,2.2,70,0.00,,---,4.12,VWS V14.01,2013-05-14 00:26:00,
2013-05-13 17:31:00,56.3,46.3,29.94,SSW,202,3.8,3.8,69,0.00,,---,4.12,VWS V14.01,2013-05-14 00:31:00,
2013-05-13 17:36:00,56.7,46.6,29.94,West,270,4.3,4.3,69,0.00,,---,4.12,VWS V14.01,2013-05-14 00:36:00,
2013-05-13 17:41:00,56.8,46.0,29.94,West,270,4.7,4.7,67,0.00,,---,4.12,VWS V14.01,2013-05-14 00:41:00,
2013-05-13 17:46:00,56.8,45.2,29.94,West,270,6.5,6.5,65,0.00,,---,4.12,VWS V14.01,2013-05-14 00:46:00,
2013-05-13 17:51:00,57.2,46.0,29.94,South,180,2.0,2.0,66,0.00,,---,4.12,VWS V14.01,2013-05-14 00:51:00,
2013-05-13 17:56:00,57.2,45.2,29.94,SW,225,2.7,2.7,64,0.00,,---,4.12,VWS V14.01,2013-05-14 00:56:00,
2013-05-13 18:01:00,57.4,44.9,29.94,SSW,202,9.8,9.8,63,0.00,,---,4.12,VWS V14.01,2013-05-14 01:01:00,
2013-05-13 18:07:00,57.2,43.9,29.94,SW,225,6.9,6.9,61,0.00,,---,4.12,VWS V14.01,2013-05-14 01:07:00,
2013-05-13 18:12:00,56.8,44.0,29.94,SE,135,2.9,2.9,62,0.00,,---,4.12,VWS V14.01,2013-05-14 01:12:00,
2013-05-13 18:17:00,57.0,45.0,29.94,SSW,202,7.2,7.2,64,0.00,,---,4.12,VWS V14.01,2013-05-14 01:17:00,
2013-05-13 18:22:00,56.8,44.0,29.94,SW,225,6.3,6.3,62,0.00,,---,4.12,VWS V14.01,2013-05-14 01:22:00,
2013-05-13 18:27:00,56.7,44.6,29.94,NNW,338,7.4,7.4,64,0.00,,---,4.12,VWS V14.01,2013-05-14 01:27:00,
2013-05-13 18:32:00,56.7,45.0,29.94,SW,225,7.2,7.2,65,0.00,,---,4.12,VWS V14.01,2013-05-14 01:32:00,
2013-05-13 18:37:00,56.5,44.9,29.94,SSW,202,1.3,1.3,65,0.00,,---,4.12,VWS V14.01,2013-05-14 01:37:00,
2013-05-13 18:42:00,56.5,45.3,29.94,SW,225,3.1,3.1,66,0.00,,---,4.12,VWS V14.01,2013-05-14 01:42:00,
2013-05-13 18:47:00,56.3,45.1,29.94,West,270,6.5,6.5,66,0.00,,---,4.12,VWS V14.01,2013-05-14 01:47:00,
2013-05-13 18:52:00,56.3,45.5,29.94,WSW,248,2.0,2.0,67,0.00,,---,4.12,VWS V14.01,2013-05-14 01:52:00,
2013-05-13 18:57:00,55.9,45.2,29.94,WSW,248,2.9,2.9,67,0.00,,---,4.12,VWS V14.01,2013-05-14 01:57:00,
2013-05-13 19:02:00,55.9,45.2,29.94,South,180,4.3,4.3,67,0.00,,---,4.12,VWS V14.01,2013-05-14 02:02:00,
2013-05-13 19:07:00,55.8,45.4,29.94,SW,225,2.0,2.0,68,0.00,,---,4.12,VWS V14.01,2013-05-14 02:07:00,
2013-05-13 19:12:00,55.8,45.0,29.94,South,180,3.6,3.6,67,0.00,,---,4.12,VWS V14.01,2013-05-14 02:12:00,
2013-05-13 19:18:00,55.8,45.4,29.94,West,270,3.6,3.6,68,0.00,,---,4.12,VWS V14.01,2013-05-14 02:18:00,
2013-05-13 19:23:00,55.4,45.0,29.94,South,180,9.8,9.8,68,0.00,,---,4.12,VWS V14.01,2013-05-14 02:23:00,
2013-05-13 19:28:00,55.2,45.6,29.94,SW,225,14.8,14.8,70,0.00,,---,4.12,VWS V14.01,2013-05-14 02:28:00,
2013-05-13 19:33:00,55.0,45.5,29.94,SSE,158,3.1,3.1,70,0.00,,---,4.12,VWS V14.01,2013-05-14 02:33:00,
2013-05-13 19:38:00,54.9,45.7,29.94,SSW,202,1.1,1.1,71,0.00,,---,4.12,VWS V14.01,2013-05-14 02:38:00,
2013-05-13 19:43:00,54.7,46.2,29.94,SSW,202,4.5,4.5,73,0.00,,---,4.12,VWS V14.01,2013-05-14 02:43:00,
2013-05-13 19:48:00,54.7,46.2,29.94,SW,225,2.0,2.0,73,0.00,,---,4.12,VWS V14.01,2013-05-14 02:48:00,
2013-05-13 19:53:00,54.5,46.4,29.94,WSW,248,3.4,3.4,74,0.00,,---,4.12,VWS V14.01,2013-05-14 02:53:00,
2013-05-13 19:58:00,54.5,46.4,29.94,SSW,202,8.5,8.5,74,0.00,,---,4.12,VWS V14.01,2013-05-14 02:58:00,
2013-05-13 20:03:00,54.5,46.4,29.97,SW,225,4.9,4.9,74,0.00,,---,4.12,VWS V14.01,2013-05-14 03:03:00,
2013-05-13 20:08:00,54.5,46.8,29.97,SSW,202,3.4,3.4,75,0.00,,---,4.12,VWS V14.01,2013-05-14 03:08:00,
2013-05-13 20:13:00,54.5,46.8,29.97,West,270,3.8,3.8,75,0.00,,---,4.12,VWS V14.01,2013-05-14 03:13:00,
2013-05-13 20:18:00,54.5,47.1,29.91,SW,225,6.0,6.0,76,0.00,,---,4.12,VWS V14.01,2013-05-14 03:18:00,
2013-05-13 20:23:00,54.5,47.1,29.91,SW,225,5.4,5.4,76,0.00,,---,4.12,VWS V14.01,2013-05-14 03:23:00,
2013-05-13 20:28:00,54.5,46.8,29.91,WSW,248,8.1,8.1,75,0.00,,---,4.12,VWS V14.01,2013-05-14 03:28:00,
2013-05-13 20:33:00,54.5,46.8,29.97,South,180,4.3,4.3,75,0.00,,---,4.12,VWS V14.01,2013-05-14 03:33:00,
2013-05-13 20:39:00,54.9,47.1,29.97,WSW,248,13.4,13.4,75,0.00,,---,4.12,VWS V14.01,2013-05-14 03:39:00,
2013-05-13 20:44:00,55.0,46.5,29.97,WSW,248,2.5,2.5,73,0.00,,---,4.12,VWS V14.01,2013-05-14 03:44:00,
2013-05-13 20:49:00,54.9,46.4,29.97,WNW,292,1.1,1.1,73,0.00,,---,4.12,VWS V14.01,2013-05-14 03:49:00,
2013-05-13 20:54:00,55.0,46.2,29.97,SW,225,5.8,5.8,72,0.00,,---,4.12,VWS V14.01,2013-05-14 03:54:00,
2013-05-13 20:59:00,55.2,46.0,29.97,SW,225,4.0,4.0,71,0.00,,---,4.12,VWS V14.01,2013-05-14 03:59:00,
2013-05-13 21:01:00,55.4,46.2,29.97,SW,225,5.6,5.6,71,0.00,,---,4.12,VWS V14.01,2013-05-14 04:01:00,
2013-05-13 21:02:00,55.4,45.8,29.97,SW,225,6.0,6.0,70,0.00,,---,4.12,VWS V14.01,2013-05-14 04:02:00,
2013-05-13 21:07:00,55.6,45.2,29.97,SE,135,2.9,2.9,68,0.00,,---,4.12,VWS V14.01,2013-05-14 04:07:00,
2013-05-13 21:12:00,55.4,44.6,29.97,West,270,3.6,3.6,67,0.00,,---,4.12,VWS V14.01,2013-05-14 04:12:00,
2013-05-13 21:17:00,55.4,43.8,29.97,SSW,202,4.3,4.3,65,0.00,,---,4.12,VWS V14.01,2013-05-14 04:17:00,
2013-05-13 21:22:00,55.6,43.6,29.97,WSW,248,7.2,7.2,64,0.00,,---,4.12,VWS V14.01,2013-05-14 04:22:00,
2013-05-13 21:28:00,55.6,43.2,29.97,SSW,202,2.2,2.2,63,0.00,,---,4.12,VWS V14.01,2013-05-14 04:28:00,
2013-05-13 21:33:00,55.9,42.3,30.00,SSW,202,3.1,3.1,60,0.00,,---,4.12,VWS V14.01,2013-05-14 04:33:00,
2013-05-13 21:38:00,55.9,41.8,30.00,South,180,5.6,5.6,59,0.00,,---,4.12,VWS V14.01,2013-05-14 04:38:00,
2013-05-13 21:43:00,55.9,41.8,30.00,SSW,202,4.9,4.9,59,0.00,,---,4.12,VWS V14.01,2013-05-14 04:43:00,
2013-05-13 21:48:00,55.9,41.4,30.00,WSW,248,2.0,2.0,58,0.00,,---,4.12,VWS V14.01,2013-05-14 04:48:00,
2013-05-13 21:53:00,55.8,41.7,30.00,WNW,292,5.8,5.8,59,0.00,,---,4.12,VWS V14.01,2013-05-14 04:53:00,
2013-05-13 21:58:00,55.9,40.5,30.00,WSW,248,0.9,0.9,56,0.00,,---,4.12,VWS V14.01,2013-05-14 04:58:00,
2013-05-13 22:03:00,55.6,39.7,30.00,WSW,248,2.0,2.0,55,0.00,,---,4.12,VWS V14.01,2013-05-14 05:03:00,
2013-05-13 22:08:00,55.2,38.4,30.00,WSW,248,3.1,3.1,53,0.00,,---,4.12,VWS V14.01,2013-05-14 05:08:00,
2013-05-13 22:13:00,54.9,38.5,30.00,WNW,292,2.9,2.9,54,0.00,,---,4.12,VWS V14.01,2013-05-14 05:13:00,
2013-05-13 22:18:00,54.5,38.2,30.00,SW,225,0.9,0.9,54,0.00,,---,4.12,VWS V14.01,2013-05-14 05:18:00,
2013-05-13 22:23:00,54.3,36.6,30.00,SW,225,2.9,2.9,51,0.00,,---,4.12,VWS V14.01,2013-05-14 05:23:00,
2013-05-13 22:28:00,54.1,35.9,30.00,SSW,202,2.9,2.9,50,0.00,,---,4.12,VWS V14.01,2013-05-14 05:28:00,
2013-05-13 22:33:00,53.8,33.5,30.03,SSW,202,10.7,10.7,46,0.00,,---,4.12,VWS V14.01,2013-05-14 05:33:00,
2013-05-13 22:38:00,53.6,32.8,30.03,WNW,292,6.0,6.0,45,0.00,,---,4.12,VWS V14.01,2013-05-14 05:38:00,
2013-05-13 22:44:00,53.4,32.6,30.03,West,270,2.0,2.0,45,0.00,,---,4.12,VWS V14.01,2013-05-14 05:44:00,
2013-05-13 22:49:00,53.1,31.2,30.06,NW,315,8.7,8.7,43,0.00,,---,4.12,VWS V14.01,2013-05-14 05:49:00,
2013-05-13 22:54:00,52.7,31.4,30.06,WNW,292,2.5,2.5,44,0.00,,---,4.12,VWS V14.01,2013-05-14 05:54:00,
2013-05-13 22:59:00,52.5,31.2,30.06,WSW,248,6.3,6.3,44,0.00,,---,4.12,VWS V14.01,2013-05-14 05:59:00,
2013-05-13 23:04:00,52.3,31.1,30.06,WSW,248,3.6,3.6,44,0.00,,---,4.12,VWS V14.01,2013-05-14 06:04:00,
2013-05-13 23:09:00,52.0,31.3,30.06,NW,315,9.6,9.6,45,0.00,,---,4.12,VWS V14.01,2013-05-14 06:09:00,
2013-05-13 23:14:00,51.6,31.5,30.06,WSW,248,6.3,6.3,46,0.00,,---,4.12,VWS V14.01,2013-05-14 06:14:00,
2013-05-13 23:19:00,51.3,31.2,30.06,West,270,3.4,3.4,46,0.00,,---,4.12,VWS V14.01,2013-05-14 06:19:00,
2013-05-13 23:24:00,50.7,31.2,30.06,WNW,292,3.8,3.8,47,0.00,,---,4.12,VWS V14.01,2013-05-14 06:24:00,
2013-05-13 23:29:00,50.2,31.3,30.06,WSW,248,0.0,0.0,48,0.00,,---,4.12,VWS V14.01,2013-05-14 06:29:00,
2013-05-13 23:34:00,49.6,30.8,30.06,WSW,248,0.0,0.0,48,0.00,,---,4.12,VWS V14.01,2013-05-14 06:34:00,
2013-05-13 23:39:00,49.3,31.0,30.06,WSW,248,0.0,0.0,49,0.00,,---,4.12,VWS V14.01,2013-05-14 06:39:00,
2013-05-13 23:44:00,48.9,30.6,30.06,NNW,338,4.3,4.3,49,0.00,,---,4.12,VWS V14.01,2013-05-14 06:44:00,
2013-05-13 23:49:00,48.7,31.0,30.06,WNW,292,3.6,3.6,50,0.00,,---,4.12,VWS V14.01,2013-05-14 06:49:00,
2013-05-13 23:54:00,48.6,31.3,30.06,WSW,248,3.6,3.6,51,0.00,,---,4.12,VWS V14.01,2013-05-14 06:54:00,